Time;durP1;ratioP1;P1;durP2;ratioP2;P2;SDS_P1;SDS_P2;PMS_P1;PMS_P2;Temp;Humidity;BMP_temperature;BMP_pressure;BME280_temperature;BME280_humidity;BME280_pressure;Samples;Min_cycle;Max_cycle;Signal;HPM_P1;HPM_P2
2022/11/28 00:01:30;;;;;;;5.83;4.50;;;5.20;99.90;;;6.04;100.00;97940.41;4966327;28;21051;-81
2022/11/28 00:04:00;;;;;;;6.77;5.27;;;5.20;99.90;;;6.05;100.00;97938.63;4967166;28;20549;-81
2022/11/28 00:06:31;;;;;;;7.83;4.70;;;5.20;99.90;;;6.08;100.00;97948.66;4967723;28;20473;-80
2022/11/28 00:09:01;;;;;;;10.23;4.60;;;5.20;99.90;;;6.07;100.00;97945.25;4973824;28;20495;-81
2022/11/28 00:11:31;;;;;;;11.97;5.53;;;5.20;99.90;;;6.06;100.00;97950.63;4971276;28;20471;-81
2022/11/28 00:14:00;;;;;;;8.17;5.80;;;5.30;99.90;;;6.08;100.00;97941.69;4972408;28;20548;-81
2022/11/28 00:16:29;;;;;;;9.40;5.20;;;5.30;99.90;;;6.08;100.00;97927.91;4972797;28;20582;-80
2022/11/28 00:19:01;;;;;;;9.50;4.70;;;5.30;99.90;;;6.10;100.00;97927.75;4974946;28;20543;-81
2022/11/28 00:21:32;;;;;;;9.60;5.23;;;5.40;99.90;;;6.11;100.00;97917.19;4971477;28;20472;-81
2022/11/28 00:24:02;;;;;;;8.73;4.60;;;5.40;99.90;;;6.11;100.00;97906.03;4973962;28;20568;-81
2022/11/28 00:26:35;;;;;;;10.17;5.30;;;5.30;99.90;;;6.12;100.00;97905.03;4973149;28;20472;-81
2022/11/28 00:29:06;;;;;;;6.73;4.20;;;5.30;99.90;;;6.11;100.00;97893.84;4972594;28;20464;-81
2022/11/28 00:31:42;;;;;;;13.63;4.80;;;5.30;99.90;;;6.15;100.00;97889.94;4968402;28;20476;-81
2022/11/28 00:34:13;;;;;;;8.27;4.67;;;5.40;99.90;;;6.12;100.00;97898.06;4975893;28;20476;-81
2022/11/28 00:36:47;;;;;;;11.20;4.27;;;5.30;99.90;;;6.15;100.00;97905.53;4974815;28;20583;-81
2022/11/28 00:39:17;;;;;;;7.90;4.67;;;5.40;99.90;;;6.12;100.00;97905.84;4975787;28;20492;-81
2022/11/28 00:41:46;;;;;;;7.47;4.20;;;5.40;99.90;;;6.14;100.00;97888.34;4968206;28;20480;-82
2022/11/28 00:44:16;;;;;;;7.93;5.20;;;5.50;99.90;;;6.13;100.00;97886.72;4976727;28;20502;-81
2022/11/28 00:46:45;;;;;;;9.07;5.07;;;5.50;99.90;;;6.14;100.00;97888.34;4970793;28;20473;-81
2022/11/28 00:49:14;;;;;;;8.10;4.80;;;5.40;99.90;;;6.13;100.00;97884.13;4975761;28;20500;-81
2022/11/28 00:51:46;;;;;;;8.33;4.63;;;5.40;99.90;;;6.10;100.00;97868.88;4972657;28;20469;-81
2022/11/28 00:54:15;;;;;;;10.20;4.70;;;5.30;99.90;;;6.12;100.00;97863.50;4974807;28;20504;-80
2022/11/28 00:56:44;;;;;;;9.93;5.33;;;5.40;99.90;;;6.14;100.00;97862.38;4975082;28;20575;-81
2022/11/28 00:59:14;;;;;;;7.93;4.60;;;5.40;99.90;;;6.14;100.00;97849.41;4969061;28;21033;-81
2022/11/28 01:01:44;;;;;;;12.10;5.87;;;5.40;99.90;;;6.12;100.00;97853.13;4972786;28;20566;-81
2022/11/28 01:04:17;;;;;;;8.33;4.93;;;5.30;99.90;;;6.11;100.00;97854.91;4974432;28;20471;-81
2022/11/28 01:06:50;;;;;;;6.67;4.57;;;5.40;99.90;;;6.12;100.00;97858.31;4972119;28;20470;-81
2022/11/28 01:09:22;;;;;;;8.80;5.50;;;5.30;99.90;;;6.13;100.00;97850.38;4971010;28;20563;-81
2022/11/28 01:11:53;;;;;;;11.67;5.60;;;5.40;99.90;;;6.13;100.00;97852.97;4977139;28;20558;-81
2022/11/28 01:14:25;;;;;;;5.77;4.70;;;5.30;99.90;;;6.14;100.00;97852.00;4975079;28;20469;-80
2022/11/28 01:16:55;;;;;;;6.27;4.50;;;5.40;99.90;;;6.13;100.00;97860.75;4972017;28;20497;-81
2022/11/28 01:19:26;;;;;;;7.10;4.67;;;5.40;99.90;;;6.11;100.00;97857.50;4974791;28;20523;-81
2022/11/28 01:21:57;;;;;;;9.87;5.00;;;5.40;99.90;;;6.11;100.00;97852.31;4973004;28;20472;-81
2022/11/28 01:24:27;;;;;;;9.67;5.00;;;5.40;99.90;;;6.11;100.00;97852.31;4970340;28;20473;-81
2022/11/28 01:26:57;;;;;;;13.67;5.30;;;5.40;99.90;;;6.12;100.00;97856.53;4974802;28;20464;-80
2022/11/28 01:29:27;;;;;;;7.97;4.93;;;5.40;99.90;;;6.14;100.00;97851.19;4972876;28;20550;-81
2022/11/28 01:31:56;;;;;;;8.23;5.20;;;5.40;99.90;;;6.13;100.00;97850.38;4973506;28;20467;-81
2022/11/28 01:34:25;;;;;;;6.63;4.40;;;5.40;99.90;;;6.12;100.00;97851.34;4972354;28;20504;-81
2022/11/28 01:36:56;;;;;;;9.03;5.00;;;5.40;99.90;;;6.13;100.00;97850.38;4973072;28;20559;-81
2022/11/28 01:39:25;;;;;;;6.40;4.43;;;5.40;99.90;;;6.12;100.00;97848.75;4971772;28;20507;-81
2022/11/28 01:41:55;;;;;;;7.10;5.53;;;5.30;99.90;;;6.11;100.00;97852.31;4972936;28;20465;-82
2022/11/28 01:45:08;;;;;;;9.73;4.37;;;5.30;99.90;;;6.10;100.00;97845.53;4969859;28;20456;-81
2022/11/28 01:47:37;;;;;;;8.93;5.73;;;5.30;99.90;;;6.05;100.00;97840.81;4969856;28;20584;-81
2022/11/28 01:50:10;;;;;;;6.60;3.80;;;5.20;99.90;;;6.03;100.00;97829.78;4972641;28;20974;-81
2022/11/28 01:52:48;;;;;;;11.30;5.37;;;5.20;99.90;;;6.01;100.00;97831.72;4970688;28;20468;-81
2022/11/28 01:55:23;;;;;;;9.03;5.00;;;5.20;99.90;;;6.03;100.00;97826.38;4972857;28;20519;-80
2022/11/28 01:57:55;;;;;;;8.87;5.00;;;5.30;99.90;;;6.01;100.00;97826.53;4968412;28;20492;-81
2022/11/28 02:00:26;;;;;;;7.53;4.60;;;5.30;99.90;;;6.01;100.00;97826.53;4971668;28;20459;-81
2022/11/28 02:03:03;;;;;;;8.60;4.73;;;5.30;99.90;;;5.99;100.00;97820.72;4969748;28;20555;-81
2022/11/28 02:05:33;;;;;;;6.33;4.37;;;5.30;99.90;;;5.96;100.00;97817.63;4970436;28;20514;-80
2022/11/28 02:08:05;;;;;;;12.53;5.77;;;5.30;99.90;;;5.97;100.00;97824.44;4973186;28;20463;-81
2022/11/28 02:10:51;;;;;;;7.47;4.97;;;5.30;99.90;;;5.95;100.00;97821.19;4968567;28;20844;-81
2022/11/28 02:13:35;;;;;;;5.33;4.57;;;5.20;99.90;;;5.93;100.00;97817.97;4969303;28;20460;-81
2022/11/28 02:16:25;;;;;;;11.43;4.80;;;5.20;99.90;;;5.92;100.00;97818.91;4972423;28;20547;-81
2022/11/28 02:19:21;;;;;;;5.37;4.57;;;5.10;99.90;;;5.90;100.00;97823.47;4970568;28;21249;-81
2022/11/28 02:22:01;;;;;;;6.90;4.93;;;5.10;99.90;;;5.88;100.00;97804.66;4973433;28;20464;-81
2022/11/28 02:25:25;;;;;;;9.53;5.00;;;5.00;99.90;;;5.88;100.00;97800.28;4970406;28;20533;-81
2022/11/28 02:28:28;;;;;;;7.60;5.17;;;5.10;99.90;;;5.89;100.00;97790.72;4967347;28;20614;-81
2022/11/28 02:31:17;;;;;;;7.67;4.77;;;5.10;99.90;;;5.82;100.00;97795.72;4969774;28;20590;-80
2022/11/28 02:33:53;;;;;;;5.47;4.43;;;5.10;99.90;;;5.83;100.00;97799.13;4973402;28;20511;-81
2022/11/28 02:36:32;;;;;;;6.43;4.63;;;5.00;99.90;;;5.84;100.00;97792.94;4968866;28;20515;-82
2022/11/28 02:39:16;;;;;;;10.00;4.80;;;5.10;99.90;;;5.87;100.00;97792.63;4970963;28;20543;-81
2022/11/28 02:41:56;;;;;;;7.47;5.13;;;5.20;99.90;;;5.83;100.00;97786.16;4972272;28;20978;-81
2022/11/28 02:44:33;;;;;;;7.63;4.70;;;5.10;99.90;;;5.81;100.00;97782.91;4976632;28;20555;-81
2022/11/28 02:47:08;;;;;;;6.13;4.13;;;5.00;99.90;;;5.78;100.00;97778.84;4974770;28;21038;-81
2022/11/28 02:49:48;;;;;;;6.33;4.90;;;4.90;99.90;;;5.73;100.00;97783.72;4974307;28;20463;-81
2022/11/28 02:52:24;;;;;;;7.90;4.70;;;4.90;99.90;;;5.69;100.00;97773.84;4972850;28;20475;-81
2022/11/28 02:54:55;;;;;;;6.10;4.57;;;4.80;99.90;;;5.69;100.00;97763.47;4974439;28;20463;-81
2022/11/28 02:57:34;;;;;;;5.50;4.30;;;4.80;99.90;;;5.70;100.00;97757.28;4973355;28;20496;-81
2022/11/28 03:00:28;;;;;;;6.53;4.53;;;4.90;99.90;;;5.68;100.00;97747.09;4971393;28;21340;-81
2022/11/28 03:03:35;;;;;;;9.93;5.10;;;4.90;99.90;;;5.67;100.00;97747.22;4974013;28;20991;-81
2022/11/28 03:06:19;;;;;;;9.20;4.97;;;4.90;99.90;;;5.65;100.00;97746.59;4969348;28;20963;-81
2022/11/28 03:09:11;;;;;;;8.00;5.40;;;4.80;99.90;;;5.66;100.00;97748.22;4975812;28;20559;-81
2022/11/28 03:11:54;;;;;;;7.87;4.37;;;4.80;99.90;;;5.66;100.00;97750.81;4971156;28;20467;-81
2022/11/28 03:14:49;;;;;;;5.67;4.03;;;4.80;99.90;;;5.63;100.00;97753.72;4970815;28;20495;-81
2022/11/28 03:17:59;;;;;;;8.97;5.13;;;4.80;99.90;;;5.59;100.00;97758.41;4972030;28;20508;-81
2022/11/28 03:20:41;;;;;;;11.60;4.40;;;4.90;99.90;;;5.55;100.00;97757.94;4977583;28;20473;-81
2022/11/28 03:23:18;;;;;;;8.50;4.20;;;4.80;99.90;;;5.56;100.00;97769.13;4978366;28;20529;-81
2022/11/28 03:25:58;;;;;;;7.40;4.10;;;4.80;99.90;;;5.53;100.00;97759.88;4975104;28;21179;-81
2022/11/28 03:28:35;;;;;;;5.10;4.20;;;4.70;99.90;;;5.49;100.00;97761.19;4977787;28;20496;-81
2022/11/28 03:31:17;;;;;;;7.47;4.63;;;4.60;99.90;;;5.40;100.00;97769.94;4977506;28;20471;-81
2022/11/28 03:33:56;;;;;;;7.60;4.40;;;4.60;99.90;;;5.41;100.00;97756.00;4974837;28;20496;-80
2022/11/28 03:36:31;;;;;;;5.00;4.33;;;4.70;99.90;;;5.42;100.00;97741.25;4975951;28;20491;-81
2022/11/28 03:39:09;;;;;;;6.80;4.67;;;4.60;99.90;;;5.41;100.00;97750.03;4974024;28;20460;-80
2022/11/28 03:41:43;;;;;;;6.83;4.23;;;4.60;99.90;;;5.35;100.00;97745.44;4971082;28;20480;-81
2022/11/28 03:44:23;;;;;;;6.40;4.40;;;4.60;99.90;;;5.32;100.00;97741.41;4975402;28;21205;-81
2022/11/28 03:46:55;;;;;;;8.80;4.67;;;4.50;99.90;;;5.32;100.00;97735.41;4970554;28;20519;-81
2022/11/28 03:49:31;;;;;;;8.87;5.00;;;4.50;99.90;;;5.31;100.00;97739.78;4974057;28;21254;-81
2022/11/28 03:52:06;;;;;;;5.57;3.90;;;4.40;99.90;;;5.32;100.00;97735.41;4974801;28;20471;-81
2022/11/28 03:54:45;;;;;;;10.70;4.73;;;4.50;99.90;;;5.31;100.00;97739.78;4977165;28;20463;-81
2022/11/28 03:57:23;;;;;;;5.60;4.23;;;4.40;99.90;;;5.27;100.00;97733.31;4975891;28;20487;-81
2022/11/28 03:59:55;;;;;;;11.47;4.93;;;4.40;99.90;;;5.26;100.00;97736.88;4973967;28;20573;-81
2022/11/28 04:02:34;;;;;;;8.33;4.40;;;4.50;99.90;;;5.25;100.00;97735.25;4974933;28;20479;-80
2022/11/28 04:05:18;;;;;;;9.00;4.70;;;4.40;99.90;;;5.22;100.00;97740.75;4973430;28;20463;-81
2022/11/28 04:07:54;;;;;;;7.63;4.07;;;4.40;99.90;;;5.20;100.00;97745.31;4971164;28;20478;-81
2022/11/28 04:10:33;;;;;;;10.70;4.97;;;4.40;99.90;;;5.18;100.00;97736.88;4975026;28;20509;-80
2022/11/28 04:13:16;;;;;;;8.37;4.83;;;4.40;99.90;;;5.14;100.00;97745.94;4972969;28;20523;-81
2022/11/28 04:15:54;;;;;;;7.80;4.60;;;4.30;99.90;;;5.14;100.00;97747.72;4977015;28;21015;-81
2022/11/28 04:18:37;;;;;;;8.33;5.07;;;4.30;99.90;;;5.15;100.00;97741.56;4973187;28;20531;-81
2022/11/28 04:21:15;;;;;;;7.77;4.67;;;4.40;99.90;;;5.14;100.00;97745.16;4975225;28;20562;-81
2022/11/28 04:23:47;;;;;;;5.70;4.20;;;4.30;99.90;;;5.11;100.00;97733.28;4970113;28;21021;-82
2022/11/28 04:26:26;;;;;;;10.03;5.00;;;4.30;99.90;;;5.11;100.00;97730.69;4975834;28;20495;-81
2022/11/28 04:29:00;;;;;;;5.87;4.40;;;4.30;99.90;;;5.12;100.00;97734.91;4972231;28;20577;-80
2022/11/28 04:31:31;;;;;;;7.40;5.00;;;4.30;99.90;;;5.06;100.00;97736.38;4976529;28;20469;-81
2022/11/28 04:34:05;;;;;;;11.03;4.80;;;4.20;99.90;;;5.09;100.00;97735.25;4975165;28;20603;-81
2022/11/28 04:36:40;;;;;;;10.40;5.00;;;4.20;99.90;;;5.08;100.00;97729.25;4975407;28;20982;-83
2022/11/28 04:39:16;;;;;;;7.80;5.30;;;4.20;99.90;;;5.09;100.00;97735.25;4973890;28;21052;-81
2022/11/28 04:41:54;;;;;;;8.17;4.70;;;4.20;99.90;;;5.08;100.00;97723.25;4963720;28;20545;-81
2022/11/28 04:44:31;;;;;;;7.23;5.40;;;4.30;99.90;;;5.07;100.00;97719.84;4976243;28;20535;-81
2022/11/28 04:47:01;;;;;;;10.03;4.80;;;4.20;99.90;;;5.07;100.00;97721.63;4977928;28;20474;-81
2022/11/28 04:49:32;;;;;;;8.00;5.03;;;4.20;99.90;;;5.07;100.00;97708.66;4973199;28;20468;-81
2022/11/28 04:52:09;;;;;;;9.13;5.07;;;4.20;99.90;;;5.05;100.00;97713.22;4977040;28;20464;-81
2022/11/28 04:54:49;;;;;;;9.20;5.03;;;4.20;99.90;;;5.05;100.00;97716.63;4976073;28;20607;-81
2022/11/28 04:57:30;;;;;;;8.73;5.30;;;4.30;99.90;;;5.06;100.00;97701.88;4973488;28;21036;-81
2022/11/28 05:00:02;;;;;;;11.33;4.77;;;4.30;99.90;;;5.05;100.00;97702.84;4975856;28;20555;-80
2022/11/28 05:02:34;;;;;;;7.00;4.77;;;4.30;99.90;;;5.02;100.00;97722.13;4972447;28;20480;-81
2022/11/28 05:05:08;;;;;;;11.40;5.03;;;4.20;99.90;;;5.02;100.00;97723.91;4972683;28;21301;-80
2022/11/28 05:07:37;;;;;;;17.03;5.13;;;4.20;99.90;;;5.03;100.00;97730.72;4974636;28;20479;-81
2022/11/28 05:10:09;;;;;;;7.93;5.00;;;4.20;99.90;;;5.02;100.00;97723.91;4973147;28;20467;-80
2022/11/28 05:12:40;;;;;;;9.47;6.43;;;4.20;99.90;;;5.01;100.00;97727.44;4974861;28;20531;-81
2022/11/28 05:15:17;;;;;;;7.73;4.73;;;4.20;99.90;;;5.02;100.00;97721.31;4971059;28;20568;-81
2022/11/28 05:17:47;;;;;;;6.20;4.50;;;4.20;99.90;;;5.03;100.00;97725.53;4972773;28;20495;-81
2022/11/28 05:20:17;;;;;;;10.17;5.30;;;4.20;99.90;;;5.02;100.00;97723.91;4970741;28;20894;-81
2022/11/28 05:22:47;;;;;;;11.20;5.40;;;4.20;99.90;;;4.99;100.00;97713.88;4972313;28;21064;-80
2022/11/28 05:25:17;;;;;;;8.73;5.67;;;4.20;99.90;;;4.98;100.00;97714.81;4968945;28;20479;-81
2022/11/28 05:27:48;;;;;;;8.10;5.33;;;4.20;99.90;;;5.00;100.00;97718.06;4970678;28;20479;-81
2022/11/28 05:30:18;;;;;;;8.53;5.17;;;4.20;99.90;;;5.01;100.00;97714.50;4972472;28;20864;-81
2022/11/28 05:32:47;;;;;;;6.13;4.57;;;4.20;99.90;;;4.98;100.00;97720.00;4970172;28;20472;-81
2022/11/28 05:35:16;;;;;;;8.33;5.87;;;4.20;99.90;;;4.99;100.00;97734.59;4971756;28;21051;-81
2022/11/28 05:37:47;;;;;;;10.43;5.70;;;4.20;99.90;;;5.01;100.00;97737.81;4973471;28;20999;-81
2022/11/28 05:40:16;;;;;;;7.73;5.33;;;4.20;99.90;;;4.98;100.00;97731.19;4973961;28;20579;-79
2022/11/28 05:42:48;;;;;;;11.73;5.60;;;4.20;99.90;;;5.00;100.00;97733.59;4975733;28;20498;-82
2022/11/28 05:45:18;;;;;;;8.20;5.17;;;4.20;99.90;;;5.00;100.00;97737.00;4972280;28;21038;-82
2022/11/28 05:47:47;;;;;;;8.30;4.73;;;4.20;99.90;;;4.98;100.00;97738.13;4973042;28;20575;-81
2022/11/28 05:50:16;;;;;;;8.40;5.00;;;4.20;99.90;;;4.97;100.00;97733.91;4973195;28;21120;-81
2022/11/28 05:52:46;;;;;;;8.53;5.10;;;4.10;99.90;;;4.98;100.00;97726.00;4975615;28;20881;-81
2022/11/28 05:55:16;;;;;;;7.33;5.17;;;4.10;99.90;;;4.97;100.00;97718.38;4976192;28;20494;-82
2022/11/28 05:57:46;;;;;;;11.40;4.80;;;4.20;99.90;;;4.95;100.00;97720.31;4974398;28;20525;-81
2022/11/28 06:00:16;;;;;;;12.30;5.70;;;4.20;99.90;;;4.98;100.00;97720.81;4976815;28;20503;-81
2022/11/28 06:02:45;;;;;;;7.03;5.20;;;4.20;99.90;;;4.99;100.00;97719.03;4975458;28;20474;-81
2022/11/28 06:05:16;;;;;;;10.43;5.20;;;4.20;99.90;;;5.01;100.00;97711.91;4977402;28;20507;-81
2022/11/28 06:08:06;;;;;;;11.27;5.40;;;4.20;99.90;;;5.03;100.00;97722.94;4976075;28;20479;-81
2022/11/28 06:10:36;;;;;;;6.70;4.73;;;4.30;99.90;;;5.00;100.00;97728.41;4971153;28;20459;-81
2022/11/28 06:13:07;;;;;;;8.70;5.37;;;4.20;99.90;;;5.02;100.00;97726.50;4969970;28;20469;-81
2022/11/28 06:15:36;;;;;;;9.90;5.13;;;4.30;99.90;;;5.01;100.00;97732.63;4970532;28;21181;-81
2022/11/28 06:18:07;;;;;;;8.27;5.60;;;4.30;99.90;;;5.01;100.00;97725.69;4970126;28;20487;-81
2022/11/28 06:20:36;;;;;;;11.37;6.07;;;4.30;99.90;;;5.00;100.00;97724.03;4965962;28;21047;-81
2022/11/28 06:23:06;;;;;;;8.07;5.07;;;4.30;99.90;;;5.03;100.00;97725.53;4971769;28;20471;-81
2022/11/28 06:25:36;;;;;;;7.83;5.10;;;4.30;99.90;;;5.03;100.00;97728.13;4969474;28;20837;-81
2022/11/28 06:28:07;;;;;;;9.53;4.50;;;4.20;99.90;;;5.04;100.00;97740.09;4975590;28;20499;-80
2022/11/28 06:30:37;;;;;;;14.00;8.07;;;4.30;99.90;;;5.02;100.00;97739.44;4971239;28;20547;-80
2022/11/28 06:33:06;;;;;;;23.20;10.20;;;4.30;99.90;;;5.03;100.00;97736.69;4974898;28;20468;-80
2022/11/28 06:35:36;;;;;;;14.37;7.20;;;4.30;99.90;;;5.05;100.00;97733.94;4970605;28;20467;-80
2022/11/28 06:38:05;;;;;;;13.73;7.57;;;4.20;99.90;;;5.04;100.00;97729.72;4969585;28;20560;-81
2022/11/28 06:40:42;;;;;;;15.37;7.20;;;4.20;99.90;;;5.06;100.00;97726.03;4973564;28;20467;-79
2022/11/28 06:43:13;;;;;;;10.87;6.03;;;4.30;99.90;;;5.08;100.00;97731.03;4975356;28;20959;-80
2022/11/28 06:45:43;;;;;;;12.93;6.27;;;4.50;99.90;;;5.04;100.00;97738.31;4976211;28;20479;-80
2022/11/28 06:48:11;;;;;;;11.50;6.33;;;4.40;99.90;;;5.04;100.00;97745.25;4977648;28;20483;-80
2022/11/28 06:50:41;;;;;;;9.63;6.57;;;4.50;99.90;;;5.05;100.00;97744.31;4976430;28;20471;-79
2022/11/28 06:53:11;;;;;;;14.70;7.10;;;4.30;99.90;;;5.05;100.00;97745.13;4976420;28;20978;-80
2022/11/28 06:55:41;;;;;;;17.80;7.50;;;4.40;99.90;;;5.06;100.00;97736.38;4980086;28;20485;-80
2022/11/28 06:58:12;;;;;;;15.60;6.70;;;4.40;99.90;;;5.09;100.00;97724.88;4980437;28;20490;-80
2022/11/28 07:00:41;;;;;;;12.67;7.10;;;4.40;99.90;;;5.06;100.00;97718.25;4978153;28;20476;-80
2022/11/28 07:03:11;;;;;;;13.70;5.80;;;4.30;99.90;;;5.08;100.00;97718.88;4980690;28;20487;-80
2022/11/28 07:05:42;;;;;;;10.60;6.70;;;4.30;99.90;;;5.11;100.00;97725.53;4981561;28;20464;-80
2022/11/28 07:08:12;;;;;;;12.33;6.60;;;4.30;99.90;;;5.12;100.00;97732.34;4981842;28;20466;-80
2022/11/28 07:10:41;;;;;;;12.23;5.60;;;4.30;99.90;;;5.07;100.00;97732.00;4981157;28;20475;-80
2022/11/28 07:13:12;;;;;;;15.47;7.30;;;4.30;99.90;;;5.10;100.00;97730.88;4980271;28;20467;-80
2022/11/28 07:15:49;;;;;;;10.57;6.20;;;4.40;99.90;;;5.09;100.00;97745.63;4977296;28;21003;-80
2022/11/28 07:18:18;;;;;;;14.37;6.63;;;4.30;99.90;;;5.13;100.00;97741.75;4980064;28;20481;-80
2022/11/28 07:20:47;;;;;;;8.50;5.57;;;4.30;99.90;;;5.14;100.00;97742.56;4978875;28;20554;-80
2022/11/28 07:23:16;;;;;;;10.20;6.47;;;4.40;99.90;;;5.15;100.00;97737.19;4978424;28;20475;-80
2022/11/28 07:25:44;;;;;;;12.23;7.77;;;4.40;99.90;;;5.15;100.00;97742.38;4979070;28;20815;-79
2022/11/28 07:28:15;;;;;;;9.87;6.60;;;4.40;99.90;;;5.17;100.00;97737.84;4977418;28;20483;-80
2022/11/28 07:31:03;;;;;;;10.93;6.03;;;4.30;99.90;;;5.19;100.00;97735.91;4977060;28;20556;-80
2022/11/28 07:33:33;;;;;;;11.40;6.60;;;4.40;99.90;;;5.20;100.00;97741.91;4975403;28;20822;-80
2022/11/28 07:36:04;;;;;;;9.80;6.33;;;4.40;99.90;;;5.20;100.00;97740.13;4977760;28;20460;-80
2022/11/28 07:38:34;;;;;;;13.50;7.63;;;4.40;99.90;;;5.20;100.00;97742.72;4977329;28;20553;-80
2022/11/28 07:41:08;;;;;;;11.90;7.33;;;4.40;99.90;;;5.25;100.00;97737.03;4980537;28;20518;-80
2022/11/28 07:43:41;;;;;;;12.50;6.60;;;4.50;99.90;;;5.28;100.00;97736.69;4978213;28;20478;-80
2022/11/28 07:46:14;;;;;;;10.90;6.83;;;4.50;99.90;;;5.26;100.00;97733.47;4978957;28;20468;-80
2022/11/28 07:48:44;;;;;;;11.90;7.00;;;4.50;99.90;;;5.24;100.00;97744.00;4977169;28;20463;-80
2022/11/28 07:51:17;;;;;;;19.30;8.17;;;4.40;99.90;;;5.26;100.00;97736.88;4980449;28;21286;-80
2022/11/28 07:53:47;;;;;;;13.10;7.70;;;4.50;99.90;;;5.31;100.00;97733.81;4980182;28;20476;-80
2022/11/28 07:56:19;;;;;;;10.80;6.87;;;4.50;99.90;;;5.31;100.00;97744.97;4978778;28;20570;-79
2022/11/28 07:58:50;;;;;;;10.23;6.60;;;4.50;99.90;;;5.30;100.00;97740.78;4978167;28;20490;-80
2022/11/28 08:01:22;;;;;;;11.50;7.07;;;4.50;99.90;;;5.36;100.00;97732.34;4977775;28;20470;-80
2022/11/28 08:03:52;;;;;;;11.07;7.20;;;4.60;99.90;;;5.37;100.00;97728.78;4979546;28;20499;-79
2022/11/28 08:06:26;;;;;;;13.17;7.23;;;4.60;99.90;;;5.39;100.00;97732.00;4978765;28;20595;-80
2022/11/28 08:09:00;;;;;;;12.40;7.43;;;4.60;99.90;;;5.39;100.00;97736.38;4979863;28;20472;-81
2022/11/28 08:11:29;;;;;;;11.23;6.80;;;4.60;99.90;;;5.40;100.00;97733.66;4978633;28;20546;-80
2022/11/28 08:14:01;;;;;;;9.70;6.60;;;4.60;99.90;;;5.39;100.00;97739.78;4978670;28;20501;-80
2022/11/28 08:16:32;;;;;;;12.63;6.90;;;4.60;99.90;;;5.39;100.00;97742.38;4979386;28;20472;-80
2022/11/28 08:19:03;;;;;;;10.93;6.70;;;4.60;99.90;;;5.41;100.00;97737.88;4978912;28;20475;-79
2022/11/28 08:21:34;;;;;;;12.97;7.00;;;4.60;99.90;;;5.40;100.00;97738.84;4976864;28;21037;-80
2022/11/28 08:24:06;;;;;;;13.57;7.73;;;4.60;99.90;;;5.41;100.00;97739.66;4977644;28;20535;-80
2022/11/28 08:26:36;;;;;;;10.50;7.10;;;4.60;99.90;;;5.45;100.00;97735.72;4978651;28;20495;-80
2022/11/28 08:29:07;;;;;;;15.33;8.67;;;4.60;99.90;;;5.49;100.00;97735.25;4977602;28;20468;-79
2022/11/28 08:31:39;;;;;;;12.40;7.13;;;4.70;99.90;;;5.52;100.00;97727.16;4976714;28;20472;-80
2022/11/28 08:34:11;;;;;;;20.77;9.17;;;4.80;99.90;;;5.54;100.00;97733.00;4978953;28;20558;-80
2022/11/28 08:36:42;;;;;;;14.60;8.00;;;4.80;99.90;;;5.57;100.00;97729.25;4980682;28;20900;-80
2022/11/28 08:40:22;;;;;;;15.47;7.93;;;4.80;99.90;;;5.60;100.00;97731.53;4978052;28;20506;-80
2022/11/28 08:42:52;;;;;;;13.93;8.23;;;4.90;99.90;;;5.64;100.00;97724.22;4978746;28;20566;-80
2022/11/28 08:45:23;;;;;;;16.67;8.40;;;4.90;99.90;;;5.66;100.00;97723.06;4979058;28;20500;-79
2022/11/28 08:47:54;;;;;;;14.67;8.70;;;5.00;99.90;;;5.68;100.00;97723.75;4977868;28;20491;-80
2022/11/28 08:50:23;;;;;;;12.67;7.60;;;5.00;99.90;;;5.71;100.00;97731.19;4978113;28;20473;-80
2022/11/28 08:52:53;;;;;;;19.93;7.90;;;5.00;99.90;;;5.71;100.00;97725.19;4976276;28;20472;-80
2022/11/28 08:55:22;;;;;;;11.37;7.20;;;5.10;99.90;;;5.70;100.00;97719.19;4976760;28;20595;-80
2022/11/28 08:58:00;;;;;;;15.47;8.10;;;5.00;99.90;;;5.73;100.00;97718.84;4975624;28;20488;-80
2022/11/28 09:00:32;;;;;;;13.50;8.10;;;5.00;99.90;;;5.77;100.00;97720.16;4974835;28;20570;-80
2022/11/28 09:03:01;;;;;;;13.27;9.27;;;5.10;99.90;;;5.79;100.00;97717.41;4975607;28;20534;-80
2022/11/28 09:05:31;;;;;;;13.87;9.00;;;5.10;99.90;;;5.83;100.00;97714.28;4974959;28;20500;-80
2022/11/28 09:08:01;;;;;;;16.00;8.60;;;5.20;99.90;;;5.84;100.00;97722.91;4974194;28;20497;-81
2022/11/28 09:10:31;;;;;;;14.40;8.90;;;5.20;99.90;;;5.84;100.00;97720.28;4974471;28;20546;-80
2022/11/28 09:13:01;;;;;;;15.80;8.70;;;5.20;99.90;;;5.86;100.00;97718.41;4979243;28;20543;-80
2022/11/28 09:15:32;;;;;;;13.70;8.03;;;5.20;99.90;;;5.88;100.00;97719.84;4973994;28;20500;-80
2022/11/28 09:18:01;;;;;;;22.90;10.00;;;5.30;99.90;;;5.89;100.00;97713.69;4976401;28;20467;-80
2022/11/28 09:20:31;;;;;;;15.83;8.67;;;5.30;99.90;;;5.92;100.00;97725.50;4977757;28;20491;-80
2022/11/28 09:23:01;;;;;;;10.90;7.60;;;5.30;99.90;;;5.96;100.00;97730.22;4980067;28;20465;-80
2022/11/28 09:25:30;;;;;;;14.73;8.00;;;5.40;99.90;;;5.98;100.00;97725.66;4975775;28;20472;-81
2022/11/28 09:28:01;;;;;;;10.50;7.17;;;5.50;99.90;;;5.99;100.00;97729.06;4976618;28;20862;-80
2022/11/28 09:30:32;;;;;;;29.23;9.13;;;5.50;99.90;;;6.01;100.00;97742.66;4973273;28;21052;-80
2022/11/28 09:33:00;;;;;;;14.67;8.93;;;5.50;99.90;;;6.01;100.00;97724.50;4977643;28;20958;-80
2022/11/28 09:35:30;;;;;;;14.23;8.30;;;5.50;99.90;;;6.04;100.00;97731.97;4973634;28;20537;-80
2022/11/28 09:38:00;;;;;;;11.23;7.90;;;5.60;99.90;;;6.05;100.00;97733.59;4977413;28;20472;-80
2022/11/28 09:40:36;;;;;;;14.67;8.40;;;5.60;99.90;;;6.06;100.00;97737.81;4976488;28;20515;-80
2022/11/28 09:43:18;;;;;;;11.00;8.00;;;5.50;99.90;;;6.08;100.00;97741.84;4977480;28;21419;-80
2022/11/28 09:45:55;;;;;;;20.00;8.23;;;5.60;99.90;;;6.09;100.00;97740.06;4979172;28;20468;-80
2022/11/28 09:48:33;;;;;;;13.67;7.87;;;5.60;99.90;;;6.11;100.00;97732.91;4977699;28;20468;-80
2022/11/28 09:51:18;;;;;;;16.23;9.33;;;5.60;99.90;;;6.13;100.00;97736.16;4975758;28;20488;-80
2022/11/28 09:54:00;;;;;;;11.83;8.20;;;5.50;99.90;;;6.14;100.00;97735.19;4978666;28;20539;-80
2022/11/28 09:56:29;;;;;;;16.73;8.60;;;5.50;99.90;;;6.16;100.00;97735.00;4975948;28;20958;-80
2022/11/28 09:59:02;;;;;;;12.07;7.77;;;5.50;99.90;;;6.15;100.00;97734.19;4975211;28;20516;-80
2022/11/28 10:01:45;;;;;;;10.80;7.70;;;5.50;99.90;;;6.17;100.00;97737.47;4975173;28;20538;-80
2022/11/28 10:04:24;;;;;;;11.63;6.57;;;5.50;99.90;;;6.18;100.00;97735.69;4977986;28;20542;-80
2022/11/28 10:07:07;;;;;;;14.37;8.53;;;5.50;99.90;;;6.17;100.00;97737.47;4978180;28;20543;-80
2022/11/28 10:09:54;;;;;;;17.50;8.50;;;5.50;99.90;;;6.20;100.00;97731.94;4974205;28;20548;-80
2022/11/28 10:12:40;;;;;;;14.23;8.20;;;5.50;99.90;;;6.17;100.00;97741.84;4975740;28;20468;-80
2022/11/28 10:15:26;;;;;;;14.67;8.37;;;5.50;99.90;;;6.18;100.00;97726.06;4978134;28;20567;-80
2022/11/28 10:18:15;;;;;;;19.13;8.10;;;5.50;99.90;;;6.20;100.00;97726.75;4975068;28;20473;-79
2022/11/28 10:20:50;;;;;;;20.80;7.60;;;5.50;99.90;;;6.21;100.00;97728.38;4974570;28;20475;-80
2022/11/28 10:23:30;;;;;;;11.87;8.03;;;5.50;99.90;;;6.24;100.00;97722.03;4974194;28;20464;-79
2022/11/28 10:26:06;;;;;;;10.97;6.90;;;5.50;99.90;;;6.26;100.00;97720.06;4975425;28;20468;-80
2022/11/28 10:28:42;;;;;;;13.60;7.70;;;5.50;99.90;;;6.27;100.00;97722.50;4972850;28;20516;-80
2022/11/28 10:31:21;;;;;;;15.40;9.00;;;5.60;99.90;;;6.31;100.00;97720.38;4976128;28;20957;-80
2022/11/28 10:33:58;;;;;;;14.03;7.40;;;5.60;99.90;;;6.32;100.00;97720.19;4975194;28;20502;-80
2022/11/28 10:36:39;;;;;;;17.43;7.80;;;5.60;99.90;;;6.34;100.00;97722.63;4974746;28;20476;-80
2022/11/28 10:39:13;;;;;;;19.47;9.43;;;5.60;99.90;;;6.37;100.00;97722.28;4977551;28;20460;-80
2022/11/28 10:42:10;;;;;;;13.67;8.53;;;5.60;99.90;;;6.40;100.00;97722.75;4974181;28;20500;-80
2022/11/28 10:45:08;;;;;;;15.60;8.40;;;5.70;99.90;;;6.41;100.00;97724.41;4975491;28;20463;-80
2022/11/28 10:48:02;;;;;;;13.03;7.90;;;5.70;99.90;;;6.45;100.00;97725.69;4976655;28;20551;-80
2022/11/28 10:51:06;;;;;;;15.50;9.30;;;5.80;99.90;;;6.48;100.00;97725.34;4974911;28;20496;-80
2022/11/28 10:53:52;;;;;;;12.57;8.60;;;5.90;99.90;;;6.50;100.00;97723.38;4974130;28;20547;-80
2022/11/28 10:56:38;;;;;;;17.67;9.30;;;5.90;99.90;;;6.55;100.00;97726.28;4973212;28;20547;-80